This is the latest recevied weather packets stored in our database for station/object AB2HM. If no packets are shown the sender has not sent any weather packets the latest 10 day(s).
| Time | Temp. | Humidity | Pressure | Rain* | Wind** | Luminosity | Snow |
|---|---|---|---|---|---|---|---|
| 1778118842 | 20° C | 78% | 1010.1 hPa | 0 mm | - | - | - |
| 1778117032 | 20° C | 77% | 1010 hPa | 0 mm | - | - | - |
| 1778115218 | 20.56° C | 75% | 1010.1 hPa | 0 mm | - | - | - |
| 1778113408 | 20.56° C | 73% | 1009.3 hPa | 0 mm | - | - | - |
| 1778111598 | 21.11° C | 72% | 1009.3 hPa | 0 mm | - | - | - |
| 1778109791 | 21.67° C | 70% | 1009 hPa | 0 mm | - | - | - |
| 1778107979 | 21.67° C | 69% | 1009.2 hPa | 0 mm | - | - | - |
| 1778106173 | 22.22° C | 67% | 1008.9 hPa | 0 mm | - | - | - |
| 1778104369 | 22.22° C | 69% | 1008.9 hPa | 0 mm | - | - | - |
| 1778102546 | 21.67° C | 70% | 1009 hPa | 0 mm | - | - | - |
| 1778100733 | 21.11° C | 69% | 1008.9 hPa | 0 mm | - | - | - |
| 1778098934 | 21.11° C | 70% | 1008.6 hPa | 0 mm | - | - | - |
| 1778097129 | 20.56° C | 71% | 1008.9 hPa | 0 mm | - | - | - |
| 1778095326 | 20° C | 73% | 1009.2 hPa | 0 mm | - | - | - |
| 1778093524 | 20° C | 74% | 1009.3 hPa | 0 mm | - | - | - |
| 1778091721 | 19.44° C | 77% | 1009.7 hPa | 0 mm | - | - | - |
| 1778089916 | 20.56° C | 73% | 1009.8 hPa | 0 mm | - | - | - |
| 1778088106 | 20° C | 72% | 1009.9 hPa | 0 mm | - | - | - |
| 1778086308 | 20° C | 73% | 1010.2 hPa | 0 mm | - | - | - |
| 1778084492 | 21.11° C | 67% | 1010.6 hPa | 0 mm | - | - | - |
| 1778082682 | 21.11° C | 65% | 1011.1 hPa | 0 mm | - | - | - |
| 1778080878 | 21.11° C | 62% | 1011.2 hPa | 0 mm | - | - | - |
| 1778079068 | 22.22° C | 57% | 1011.1 hPa | 0 mm | - | - | - |
| 1778077259 | 21.67° C | 58% | 1011.2 hPa | 0 mm | - | - | - |
| 1778075452 | 21.67° C | 59% | 1011.1 hPa | 0 mm | - | - | - |
* Rain latest hour (hover to see other rain measurements)
** Current wind speed in m/s (hover to see current wind gust speed)